Time;durP1;ratioP1;P1;durP2;ratioP2;P2;SDS_P1;SDS_P2;PMS_P1;PMS_P2;Temp;Humidity;BMP_temperature;BMP_pressure;BME280_temperature;BME280_humidity;BME280_pressure;Samples;Min_cycle;Max_cycle;Signal;HPM_P1;HPM_P2
2021/01/19 00:01:07;;;;;;;32.08;17.13;;;3.80;96.10;;;;;;5041125;28;20029;-67
2021/01/19 00:03:32;;;;;;;27.52;16.83;;;3.80;95.80;;;;;;5046520;28;20029;-67
2021/01/19 00:05:58;;;;;;;34.97;15.93;;;3.80;96.00;;;;;;5054465;28;20047;-66
2021/01/19 00:08:24;;;;;;;30.83;15.65;;;3.80;96.00;;;;;;5058188;28;20099;-66
2021/01/19 00:10:50;;;;;;;30.88;17.42;;;3.80;96.00;;;;;;5063352;28;20421;-67
2021/01/19 00:13:20;;;;;;;33.63;16.40;;;3.70;96.00;;;;;;5057157;28;20032;-67
2021/01/19 00:15:47;;;;;;;28.17;15.73;;;3.80;96.00;;;;;;5051610;28;20025;-67
2021/01/19 00:18:13;;;;;;;26.30;16.95;;;3.70;96.00;;;;;;5055174;28;20037;-66
2021/01/19 00:20:38;;;;;;;28.65;16.65;;;3.80;95.80;;;;;;5053551;28;20465;-66
2021/01/19 00:23:04;;;;;;;25.85;15.40;;;3.80;95.90;;;;;;5050219;28;20160;-67
2021/01/19 00:25:29;;;;;;;30.55;16.35;;;3.70;96.00;;;;;;5052288;28;20211;-67
2021/01/19 00:27:55;;;;;;;35.40;16.38;;;3.80;95.90;;;;;;5044348;28;20032;-66
2021/01/19 00:30:21;;;;;;;32.08;17.02;;;3.70;96.00;;;;;;5059770;28;20012;-67
2021/01/19 00:32:46;;;;;;;32.65;17.90;;;3.70;96.00;;;;;;5057835;28;20111;-66
2021/01/19 00:35:12;;;;;;;31.48;16.40;;;3.70;96.20;;;;;;5056189;28;20556;-67
2021/01/19 00:37:37;;;;;;;38.97;18.00;;;3.70;96.10;;;;;;5066281;28;20085;-66
2021/01/19 00:40:03;;;;;;;31.42;16.83;;;3.70;96.10;;;;;;5058503;28;20025;-66
2021/01/19 00:42:29;;;;;;;35.22;18.30;;;3.70;96.10;;;;;;5043436;28;20025;-66
2021/01/19 00:44:54;;;;;;;34.05;17.42;;;3.70;96.10;;;;;;5061719;28;20032;-67
2021/01/19 00:47:20;;;;;;;30.05;18.08;;;3.70;96.00;;;;;;5076024;22;20132;-65
2021/01/19 00:49:46;;;;;;;32.72;18.35;;;3.60;96.00;;;;;;5046210;28;20032;-66
2021/01/19 00:52:11;;;;;;;32.38;17.52;;;3.60;96.00;;;;;;5040926;28;20461;-66
2021/01/19 00:54:37;;;;;;;31.42;17.63;;;3.60;96.00;;;;;;5049051;28;20036;-66
2021/01/19 00:57:02;;;;;;;31.77;18.00;;;3.60;96.00;;;;;;5043908;28;20418;-65
2021/01/19 00:59:28;;;;;;;36.55;17.73;;;3.60;96.00;;;;;;5049145;28;20025;-66
2021/01/19 01:01:54;;;;;;;35.25;19.20;;;3.60;95.90;;;;;;5041643;28;20064;-66
2021/01/19 01:04:19;;;;;;;31.58;19.42;;;3.60;96.00;;;;;;5046145;28;20030;-66
2021/01/19 01:06:45;;;;;;;33.05;17.88;;;3.60;95.90;;;;;;5046805;28;20025;-66
2021/01/19 01:09:10;;;;;;;37.35;19.80;;;3.50;95.90;;;;;;5044069;28;20473;-66
2021/01/19 01:11:43;;;;;;;33.55;19.63;;;3.60;96.00;;;;;;5048143;28;20048;-66
2021/01/19 01:14:11;;;;;;;38.22;19.67;;;3.60;95.90;;;;;;5037933;28;20543;-66
2021/01/19 01:16:37;;;;;;;36.05;19.67;;;3.50;95.90;;;;;;5042794;28;20036;-66
2021/01/19 01:19:03;;;;;;;40.92;21.27;;;3.60;95.80;;;;;;5042585;28;20036;-66
2021/01/19 01:21:29;;;;;;;34.13;21.17;;;3.50;95.80;;;;;;5044357;28;20029;-66
2021/01/19 01:23:55;;;;;;;37.58;19.95;;;3.50;95.90;;;;;;5043567;28;20041;-66
2021/01/19 01:26:23;;;;;;;37.28;20.88;;;3.50;95.80;;;;;;5046151;28;20033;-66
2021/01/19 01:28:48;;;;;;;41.53;21.27;;;3.60;95.50;;;;;;5045989;28;20079;-66
2021/01/19 01:31:19;;;;;;;37.80;20.70;;;3.50;95.40;;;;;;5044157;28;20025;-66
2021/01/19 01:33:45;;;;;;;38.40;21.80;;;3.50;95.50;;;;;;5045394;28;20032;-66
2021/01/19 01:36:11;;;;;;;32.92;20.30;;;3.50;95.50;;;;;;5045136;28;20493;-66
2021/01/19 01:38:36;;;;;;;37.03;21.50;;;3.40;95.50;;;;;;5043590;28;20037;-66
2021/01/19 01:41:02;;;;;;;43.88;22.33;;;3.40;95.50;;;;;;5042766;28;20485;-66
2021/01/19 01:43:27;;;;;;;41.85;22.90;;;3.50;95.40;;;;;;5043775;28;20048;-66
2021/01/19 01:45:53;;;;;;;38.25;22.67;;;3.50;95.50;;;;;;5041251;28;20036;-64
2021/01/19 01:48:18;;;;;;;40.47;22.77;;;3.50;95.60;;;;;;5048058;28;20094;-66
2021/01/19 01:50:44;;;;;;;46.33;23.58;;;3.40;95.50;;;;;;5043179;28;20040;-65
2021/01/19 01:53:10;;;;;;;41.60;23.75;;;3.50;95.60;;;;;;5045432;28;20596;-65
2021/01/19 01:55:36;;;;;;;42.13;23.40;;;3.50;95.60;;;;;;5043918;28;20181;-66
2021/01/19 01:58:02;;;;;;;41.30;24.27;;;3.60;95.30;;;;;;5045967;28;20033;-66
2021/01/19 02:00:28;;;;;;;46.88;24.20;;;3.50;95.50;;;;;;5045762;28;20524;-65
2021/01/19 02:02:56;;;;;;;43.40;23.75;;;3.50;95.50;;;;;;5035283;28;20053;-66
2021/01/19 02:05:23;;;;;;;41.63;24.30;;;3.50;95.60;;;;;;5050586;28;20025;-66
2021/01/19 02:08:10;;;;;;;41.65;24.77;;;3.50;95.60;;;;;;5051193;28;20021;-66
2021/01/19 02:10:54;;;;;;;43.13;24.00;;;3.50;95.60;;;;;;5034968;28;20029;-66
2021/01/19 02:13:33;;;;;;;45.35;23.50;;;3.50;95.80;;;;;;5041295;28;20084;-66
2021/01/19 02:16:24;;;;;;;48.95;24.48;;;3.40;95.90;;;;;;5048759;28;20037;-65
2021/01/19 02:19:08;;;;;;;;;;;3.40;96.10;;;;;;5047467;28;20032;-65
2021/01/19 02:21:45;;;;;;;42.22;24.48;;;3.40;96.20;;;;;;5045069;28;19909;-66
2021/01/19 02:24:31;;;;;;;44.10;24.88;;;3.50;96.10;;;;;;5048454;28;20433;-65
2021/01/19 02:27:00;;;;;;;43.08;24.92;;;3.50;96.10;;;;;;5045661;28;20489;-66
2021/01/19 02:29:25;;;;;;;46.85;25.33;;;3.50;96.10;;;;;;5045117;28;20025;-66
2021/01/19 02:32:10;;;;;;;47.38;25.17;;;3.50;96.00;;;;;;5038752;28;20083;-66
2021/01/19 02:35:04;;;;;;;41.83;24.27;;;3.50;96.10;;;;;;5043654;28;20095;-66
2021/01/19 02:37:50;;;;;;;48.50;23.70;;;3.50;96.20;;;;;;5038459;28;20029;-66
2021/01/19 02:40:18;;;;;;;48.78;25.25;;;3.50;96.10;;;;;;5047464;28;20025;-66
2021/01/19 02:42:55;;;;;;;44.00;23.95;;;3.50;96.10;;;;;;5050943;28;20028;-66
2021/01/19 02:45:21;;;;;;;44.50;25.75;;;3.50;96.10;;;;;;5048457;28;20504;-67
2021/01/19 02:47:47;;;;;;;45.35;24.98;;;3.50;96.20;;;;;;5049543;28;20045;-67
2021/01/19 02:50:13;;;;;;;40.42;23.65;;;3.50;96.20;;;;;;5037078;28;20028;-66
2021/01/19 02:52:41;;;;;;;46.17;26.13;;;3.50;96.20;;;;;;5030502;28;20032;-65
2021/01/19 02:55:07;;;;;;;46.05;24.90;;;3.50;96.30;;;;;;5045702;28;20044;-66
2021/01/19 02:58:03;;;;;;;46.53;25.67;;;3.50;96.30;;;;;;5047607;28;20046;-67
2021/01/19 03:00:52;;;;;;;40.80;24.90;;;3.50;96.40;;;;;;5043155;28;20029;-66
2021/01/19 03:03:18;;;;;;;50.40;26.50;;;3.60;96.30;;;;;;5046828;28;20021;-67
2021/01/19 03:05:45;;;;;;;48.58;25.65;;;3.50;96.20;;;;;;5049504;28;20147;-66
2021/01/19 03:08:13;;;;;;;50.22;26.52;;;3.50;96.30;;;;;;5049726;28;20491;-66
2021/01/19 03:10:42;;;;;;;49.75;25.48;;;3.60;96.40;;;;;;5034524;28;20374;-66
2021/01/19 03:13:14;;;;;;;43.63;26.15;;;3.60;96.40;;;;;;5043670;28;20025;-66
2021/01/19 03:15:41;;;;;;;46.97;26.80;;;3.60;96.20;;;;;;5042543;28;20105;-66
2021/01/19 03:18:07;;;;;;;50.20;27.13;;;3.60;96.10;;;;;;5039923;28;20045;-66
2021/01/19 03:20:34;;;;;;;50.28;25.83;;;3.60;96.10;;;;;;5047133;28;20082;-66
2021/01/19 03:23:00;;;;;;;47.83;27.13;;;3.60;96.00;;;;;;5046674;28;20141;-66
2021/01/19 03:25:26;;;;;;;43.30;26.55;;;3.60;96.00;;;;;;5040129;28;20025;-67
2021/01/19 03:27:51;;;;;;;46.45;26.33;;;3.60;96.10;;;;;;5023126;28;20033;-66
2021/01/19 03:30:17;;;;;;;45.95;26.85;;;3.70;96.00;;;;;;5041292;28;20025;-66
2021/01/19 03:32:43;;;;;;;42.35;26.25;;;3.60;95.90;;;;;;5034778;28;20048;-66
2021/01/19 03:35:09;;;;;;;42.35;26.08;;;3.70;96.00;;;;;;5047030;28;20068;-66
2021/01/19 03:37:35;;;;;;;47.00;26.00;;;3.60;96.00;;;;;;5045000;28;20032;-67
2021/01/19 03:40:05;;;;;;;44.45;26.08;;;3.70;96.00;;;;;;5047858;28;20388;-66
2021/01/19 03:42:30;;;;;;;41.63;25.58;;;3.80;95.70;;;;;;5049510;28;20127;-66
2021/01/19 03:44:56;;;;;;;46.33;25.85;;;3.80;95.50;;;;;;5044455;28;20032;-66
2021/01/19 03:47:21;;;;;;;46.15;25.33;;;3.70;95.70;;;;;;5050099;28;20040;-66
2021/01/19 03:49:47;;;;;;;46.97;25.75;;;3.70;95.80;;;;;;5039513;28;20120;-66
2021/01/19 03:52:13;;;;;;;42.70;25.23;;;3.70;95.90;;;;;;5033867;28;20493;-66
2021/01/19 03:54:38;;;;;;;43.80;26.52;;;3.70;95.80;;;;;;5045340;28;20404;-66
2021/01/19 03:57:04;;;;;;;48.70;26.70;;;3.80;95.70;;;;;;5029404;28;20075;-67
2021/01/19 03:59:30;;;;;;;48.95;25.75;;;3.80;95.80;;;;;;5036482;28;20121;-66
2021/01/19 04:01:55;;;;;;;44.13;25.83;;;3.70;95.90;;;;;;5038326;28;20313;-66
2021/01/19 04:04:21;;;;;;;46.35;26.05;;;3.80;95.90;;;;;;5045701;28;20029;-66
2021/01/19 04:06:47;;;;;;;46.08;25.58;;;3.80;95.70;;;;;;5049684;28;20111;-66
2021/01/19 04:09:13;;;;;;;47.95;26.17;;;3.80;95.90;;;;;;5041391;28;20445;-66
2021/01/19 04:11:38;;;;;;;46.33;25.85;;;3.80;96.00;;;;;;5039461;28;20082;-66
2021/01/19 04:14:04;;;;;;;43.50;25.35;;;3.80;96.00;;;;;;5047153;28;20049;-66
2021/01/19 04:16:29;;;;;;;45.05;25.73;;;3.80;96.10;;;;;;5046835;28;20048;-65
2021/01/19 04:18:55;;;;;;;46.75;25.65;;;3.70;96.20;;;;;;5046847;28;20036;-66
2021/01/19 04:21:20;;;;;;;40.88;25.70;;;3.70;96.30;;;;;;5045554;28;20060;-66
2021/01/19 04:23:46;;;;;;;55.13;27.98;;;3.70;96.50;;;;;;5040344;28;20043;-67
2021/01/19 04:26:12;;;;;;;46.25;26.35;;;3.70;96.60;;;;;;5049520;28;20029;-66
2021/01/19 04:28:37;;;;;;;48.67;26.88;;;3.60;96.60;;;;;;5035674;28;20026;-66
2021/01/19 04:31:03;;;;;;;50.42;26.40;;;3.70;96.80;;;;;;5031188;28;20032;-66
2021/01/19 04:33:29;;;;;;;48.40;26.35;;;3.70;96.90;;;;;;5038223;28;20041;-66
2021/01/19 04:35:55;;;;;;;47.63;25.20;;;3.60;96.90;;;;;;5024007;28;20039;-66
2021/01/19 04:38:20;;;;;;;49.22;26.67;;;3.60;97.00;;;;;;5024321;28;20553;-67
2021/01/19 04:40:46;;;;;;;49.47;25.80;;;3.60;97.00;;;;;;5024457;28;20036;-66
2021/01/19 04:43:14;;;;;;;46.45;25.77;;;3.60;97.00;;;;;;5024422;28;20502;-66
2021/01/19 04:45:41;;;;;;;46.40;24.75;;;3.60;97.00;;;;;;5024347;28;20549;-66
2021/01/19 04:48:08;;;;;;;43.88;24.48;;;3.60;97.00;;;;;;5025238;28;20029;-66
2021/01/19 04:50:35;;;;;;;43.65;23.83;;;3.60;97.00;;;;;;5025239;28;20041;-66
2021/01/19 04:53:01;;;;;;;42.70;23.60;;;3.60;97.10;;;;;;5024773;28;20688;-66
2021/01/19 04:55:27;;;;;;;43.67;23.83;;;3.60;97.20;;;;;;5025007;28;20858;-66
2021/01/19 04:58:02;;;;;;;43.10;22.98;;;3.60;97.20;;;;;;5024765;28;20091;-66
2021/01/19 05:00:33;;;;;;;38.17;23.45;;;3.60;97.10;;;;;;5023815;28;20086;-67
2021/01/19 05:03:01;;;;;;;;;;;3.60;97.10;;;;;;5024748;28;20509;-66
2021/01/19 05:05:36;;;;;;;40.70;21.77;;;3.60;97.20;;;;;;5039100;28;20000;-66
2021/01/19 05:08:02;;;;;;;39.83;23.63;;;3.60;97.20;;;;;;5046708;28;20025;-66
2021/01/19 05:10:34;;;;;;;39.03;23.13;;;3.60;97.10;;;;;;5039246;28;20018;-66
2021/01/19 05:13:13;;;;;;;42.22;23.38;;;3.60;97.10;;;;;;5039704;28;20033;-67
2021/01/19 05:15:48;;;;;;;37.95;21.85;;;3.60;97.10;;;;;;5046011;28;20025;-67
2021/01/19 05:18:15;;;;;;;38.42;23.10;;;3.60;96.90;;;;;;5048879;28;20108;-67
2021/01/19 05:20:45;;;;;;;43.03;25.02;;;3.60;96.90;;;;;;5051434;28;20024;-66
2021/01/19 05:23:21;;;;;;;38.30;22.98;;;3.60;97.00;;;;;;5051000;28;20461;-66
2021/01/19 05:25:57;;;;;;;44.08;23.70;;;3.60;97.10;;;;;;5043205;28;20049;-65
2021/01/19 05:28:40;;;;;;;42.65;24.60;;;3.60;97.10;;;;;;5044080;28;20020;-65
2021/01/19 05:31:19;;;;;;;46.40;25.55;;;3.60;97.20;;;;;;5051071;28;20037;-66
2021/01/19 05:34:05;;;;;;;42.67;24.90;;;3.60;97.20;;;;;;5039368;28;20018;-66
2021/01/19 05:37:00;;;;;;;39.42;23.92;;;3.60;97.10;;;;;;5054083;28;20029;-65
2021/01/19 05:39:26;;;;;;;45.95;25.17;;;3.70;97.10;;;;;;5033081;28;20033;-66
2021/01/19 05:41:53;;;;;;;45.83;25.40;;;3.60;97.10;;;;;;5052573;28;20413;-66
2021/01/19 05:44:30;;;;;;;36.45;23.08;;;3.70;97.20;;;;;;5048373;28;20484;-66
2021/01/19 05:46:59;;;;;;;42.05;24.92;;;3.70;97.00;;;;;;5053394;28;20393;-67
2021/01/19 05:49:46;;;;;;;40.33;25.02;;;3.70;96.90;;;;;;5051885;28;20041;-66
2021/01/19 05:52:15;;;;;;;26.40;18.90;;;3.60;97.00;;;;;;5044962;28;20094;-64
2021/01/19 05:54:46;;;;;;;37.40;22.13;;;3.60;96.60;;;;;;5041384;28;20029;-65
2021/01/19 05:57:23;;;;;;;32.42;21.15;;;3.60;96.60;;;;;;5051374;28;20062;-65
2021/01/19 06:00:00;;;;;;;33.63;19.85;;;3.60;96.50;;;;;;5046249;28;20037;-66
2021/01/19 06:02:43;;;;;;;33.10;20.58;;;3.60;96.40;;;;;;5027639;28;20058;-66
2021/01/19 06:05:10;;;;;;;25.00;16.38;;;3.60;96.50;;;;;;5030286;28;20063;-66
2021/01/19 06:07:38;;;;;;;29.23;18.67;;;3.50;96.10;;;;;;5028090;28;20509;-66
2021/01/19 06:10:15;;;;;;;30.48;19.13;;;3.50;96.30;;;;;;5034236;28;20033;-66
2021/01/19 06:12:41;;;;;;;27.13;17.77;;;3.40;96.40;;;;;;5027978;28;20106;-66
2021/01/19 06:15:08;;;;;;;26.48;16.75;;;3.40;96.50;;;;;;5029813;28;20052;-66
2021/01/19 06:17:34;;;;;;;28.05;17.83;;;3.40;96.60;;;;;;5048785;28;20028;-66
2021/01/19 06:20:00;;;;;;;29.63;16.55;;;3.40;96.60;;;;;;5047331;28;20494;-66
2021/01/19 06:22:28;;;;;;;28.42;18.10;;;3.40;96.70;;;;;;5049387;28;20040;-66
2021/01/19 06:24:57;;;;;;;25.05;17.80;;;3.30;96.70;;;;;;5049904;28;20511;-66
2021/01/19 06:27:23;;;;;;;31.95;16.45;;;3.30;96.70;;;;;;5050741;28;20573;-66
2021/01/19 06:30:01;;;;;;;25.52;15.05;;;3.30;96.70;;;;;;5047324;28;20112;-66
2021/01/19 06:32:32;;;;;;;31.67;16.33;;;3.30;96.70;;;;;;5047485;28;20048;-66
2021/01/19 06:35:13;;;;;;;28.70;16.33;;;3.30;96.70;;;;;;5043370;28;20029;-66
2021/01/19 06:37:38;;;;;;;28.02;15.68;;;3.30;96.60;;;;;;5044603;28;20064;-66
2021/01/19 06:40:09;;;;;;;31.35;16.52;;;3.30;96.70;;;;;;5044505;28;20068;-66
2021/01/19 06:42:36;;;;;;;27.48;16.50;;;3.20;96.50;;;;;;5049922;28;20104;-66
2021/01/19 06:45:04;;;;;;;24.42;15.13;;;3.30;96.60;;;;;;5044278;28;20478;-66
2021/01/19 06:47:49;;;;;;;26.83;14.35;;;3.30;96.60;;;;;;5080639;22;20045;-68
2021/01/19 06:50:21;;;;;;;30.20;15.73;;;3.20;96.70;;;;;;5055352;28;20255;-68
2021/01/19 06:52:58;;;;;;;;;;;3.20;96.70;;;;;;5066842;28;20056;-67
2021/01/19 06:55:30;;;;;;;24.42;14.40;;;3.20;96.50;;;;;;5043091;28;20053;-67
2021/01/19 06:58:11;;;;;;;26.13;14.30;;;3.20;96.80;;;;;;5024384;28;20033;-67
2021/01/19 07:00:39;;;;;;;24.13;13.85;;;3.10;96.70;;;;;;5039690;28;20026;-67
2021/01/19 07:03:19;;;;;;;26.80;14.23;;;3.10;96.80;;;;;;5040103;28;20041;-67
2021/01/19 07:05:54;;;;;;;29.27;14.27;;;3.10;96.70;;;;;;5044428;28;20056;-67
2021/01/19 07:08:19;;;;;;;19.98;12.63;;;3.10;96.80;;;;;;5047939;28;20083;-66
2021/01/19 07:10:48;;;;;;;25.02;13.23;;;3.20;96.80;;;;;;5045948;28;20052;-68
2021/01/19 07:13:25;;;;;;;25.08;12.13;;;3.10;96.70;;;;;;5041058;28;20030;-67
2021/01/19 07:15:56;;;;;;;25.75;12.50;;;3.20;96.80;;;;;;5031210;28;20037;-68
2021/01/19 07:18:32;;;;;;;22.15;12.75;;;3.20;96.90;;;;;;5039774;28;20025;-67
2021/01/19 07:21:04;;;;;;;26.45;12.32;;;3.10;96.80;;;;;;5040782;28;20031;-68
2021/01/19 07:23:45;;;;;;;24.50;12.48;;;3.10;96.80;;;;;;5044330;28;20036;-67
2021/01/19 07:26:23;;;;;;;20.20;11.57;;;3.10;96.80;;;;;;5038262;28;20530;-68
2021/01/19 07:28:51;;;;;;;21.10;11.18;;;3.10;96.80;;;;;;5039477;28;20115;-67
2021/01/19 07:31:19;;;;;;;23.10;11.07;;;3.10;96.90;;;;;;5034003;28;20071;-66
2021/01/19 07:33:50;;;;;;;24.63;11.63;;;3.10;96.80;;;;;;5046646;28;20490;-67
2021/01/19 07:36:17;;;;;;;21.80;11.52;;;3.10;96.90;;;;;;5040492;28;20262;-67
2021/01/19 07:38:43;;;;;;;21.98;11.55;;;3.20;96.90;;;;;;5047734;28;20033;-68
2021/01/19 07:41:09;;;;;;;21.42;11.23;;;3.10;96.90;;;;;;5028292;28;20032;-68
2021/01/19 07:43:37;;;;;;;18.58;9.90;;;3.20;96.90;;;;;;5039995;28;20588;-68
2021/01/19 07:46:03;;;;;;;20.90;10.15;;;3.20;96.90;;;;;;5041842;28;20667;-67
2021/01/19 07:48:39;;;;;;;17.27;10.55;;;3.20;96.90;;;;;;5041519;28;20083;-67
2021/01/19 07:51:15;;;;;;;19.80;9.50;;;3.20;97.00;;;;;;5041547;28;20140;-67
2021/01/19 07:53:51;;;;;;;19.42;9.80;;;3.20;97.10;;;;;;5037179;28;20033;-67
2021/01/19 07:56:27;;;;;;;20.83;10.10;;;3.20;97.10;;;;;;5034295;28;20040;-68
2021/01/19 07:58:53;;;;;;;14.15;8.10;;;3.20;97.00;;;;;;5040044;28;20036;-67
2021/01/19 08:01:29;;;;;;;15.15;7.40;;;3.20;97.10;;;;;;5042052;28;20136;-67
2021/01/19 08:04:07;;;;;;;11.98;6.82;;;3.30;96.90;;;;;;5026606;28;20116;-68
2021/01/19 08:06:32;;;;;;;11.13;7.10;;;3.30;96.80;;;;;;5039390;28;20472;-67
2021/01/19 08:09:10;;;;;;;15.55;7.20;;;3.30;96.80;;;;;;5040907;28;20033;-68
2021/01/19 08:11:36;;;;;;;19.40;6.60;;;3.30;96.90;;;;;;5042047;28;20122;-67
2021/01/19 08:14:02;;;;;;;13.18;6.57;;;3.20;96.80;;;;;;5042942;28;20544;-67
2021/01/19 08:16:31;;;;;;;11.38;6.25;;;3.20;96.80;;;;;;5041355;28;20390;-67
2021/01/19 08:19:07;;;;;;;15.10;5.85;;;3.20;96.90;;;;;;5046804;28;20120;-67
2021/01/19 08:21:34;;;;;;;8.63;5.63;;;3.20;97.00;;;;;;5047007;28;20028;-67
2021/01/19 08:24:03;;;;;;;11.15;5.22;;;3.20;97.10;;;;;;5041413;28;20625;-67
2021/01/19 08:26:29;;;;;;;10.13;5.15;;;3.20;97.10;;;;;;5035828;28;20301;-67
2021/01/19 08:28:55;;;;;;;7.47;4.22;;;3.20;97.00;;;;;;5043494;28;20035;-66
2021/01/19 08:31:21;;;;;;;9.32;4.72;;;3.20;96.90;;;;;;5036848;28;20021;-68
2021/01/19 08:33:50;;;;;;;7.05;4.32;;;3.20;96.70;;;;;;5039413;28;20398;-66
2021/01/19 08:36:18;;;;;;;8.82;4.38;;;3.30;96.80;;;;;;5034145;28;20115;-66
2021/01/19 08:38:47;;;;;;;7.88;4.75;;;3.20;96.80;;;;;;5040883;28;20029;-66
2021/01/19 08:41:17;;;;;;;9.65;4.20;;;3.20;96.90;;;;;;5043958;28;20027;-66
2021/01/19 08:44:00;;;;;;;7.88;4.35;;;3.20;97.00;;;;;;5044571;28;20405;-66
2021/01/19 08:46:29;;;;;;;7.10;4.22;;;3.30;96.70;;;;;;5035522;28;20029;-65
2021/01/19 08:49:03;;;;;;;14.13;4.40;;;3.20;96.70;;;;;;5046884;28;20017;-66
2021/01/19 08:51:29;;;;;;;9.90;4.20;;;3.20;96.90;;;;;;5050722;28;20039;-66
2021/01/19 08:53:56;;;;;;;12.23;4.13;;;3.20;97.00;;;;;;5047745;28;20033;-66
2021/01/19 08:56:23;;;;;;;7.47;3.83;;;3.20;97.10;;;;;;5038634;28;20091;-66
2021/01/19 08:58:50;;;;;;;8.63;4.05;;;3.30;97.00;;;;;;5044201;28;20037;-66
2021/01/19 09:01:15;;;;;;;11.50;4.70;;;3.20;97.00;;;;;;5025057;28;20091;-66
2021/01/19 09:03:41;;;;;;;8.20;4.30;;;3.30;97.00;;;;;;5050534;28;20032;-65
2021/01/19 09:06:12;;;;;;;10.20;4.30;;;3.30;97.00;;;;;;5038764;28;20120;-65
2021/01/19 09:08:43;;;;;;;6.57;4.00;;;3.30;97.10;;;;;;5024658;28;20021;-65
2021/01/19 09:11:10;;;;;;;9.68;5.20;;;3.30;96.90;;;;;;5029500;28;20515;-65
2021/01/19 09:13:39;;;;;;;6.88;3.88;;;3.30;96.90;;;;;;5022563;28;20032;-66
2021/01/19 09:16:05;;;;;;;7.80;4.00;;;3.30;97.00;;;;;;5036700;28;20072;-67
2021/01/19 09:18:31;;;;;;;9.73;3.88;;;3.40;97.10;;;;;;5025908;28;20087;-67
2021/01/19 09:21:06;;;;;;;5.97;3.58;;;3.40;96.80;;;;;;5039438;28;20060;-67
2021/01/19 09:23:33;;;;;;;10.82;3.88;;;3.40;96.80;;;;;;5043791;28;20033;-67
2021/01/19 09:26:05;;;;;;;5.53;3.58;;;3.40;96.80;;;;;;5037728;28;20038;-67
2021/01/19 09:28:33;;;;;;;8.43;3.60;;;3.40;96.80;;;;;;5042895;28;20239;-66
2021/01/19 09:31:09;;;;;;;6.43;3.47;;;3.40;96.80;;;;;;5030936;28;20497;-67
2021/01/19 09:33:34;;;;;;;8.57;3.45;;;3.40;96.80;;;;;;5039112;28;20025;-66
2021/01/19 09:36:05;;;;;;;7.32;3.30;;;3.40;96.90;;;;;;5040829;28;20054;-67
2021/01/19 09:38:31;;;;;;;7.95;3.55;;;3.40;96.90;;;;;;5020442;28;20033;-66
2021/01/19 09:40:56;;;;;;;11.60;3.17;;;3.40;96.90;;;;;;5046457;28;20508;-66
2021/01/19 09:43:22;;;;;;;7.43;3.67;;;3.40;97.00;;;;;;5046207;28;20090;-66
2021/01/19 09:45:48;;;;;;;8.77;3.50;;;3.40;97.00;;;;;;5039337;28;20037;-67
2021/01/19 09:48:17;;;;;;;6.85;3.15;;;3.40;97.00;;;;;;5047526;28;20560;-66
2021/01/19 09:50:43;;;;;;;7.18;3.15;;;3.50;97.00;;;;;;5041118;28;20280;-66
2021/01/19 09:53:09;;;;;;;6.80;3.33;;;3.50;96.90;;;;;;5048457;28;20368;-66
2021/01/19 09:55:37;;;;;;;8.15;3.50;;;3.50;96.80;;;;;;5035489;28;20112;-67
2021/01/19 09:58:05;;;;;;;6.90;2.95;;;3.50;96.70;;;;;;5044915;28;20037;-67
2021/01/19 10:00:39;;;;;;;4.63;3.20;;;3.50;96.80;;;;;;5041081;28;20036;-67
2021/01/19 10:03:13;;;;;;;6.95;3.05;;;3.50;96.80;;;;;;5048448;28;20028;-66
2021/01/19 10:05:42;;;;;;;7.82;3.40;;;3.60;96.80;;;;;;5040685;28;20033;-66
2021/01/19 10:08:09;;;;;;;7.32;3.17;;;3.60;96.80;;;;;;5046118;28;20478;-67
2021/01/19 10:10:39;;;;;;;6.28;3.30;;;3.60;96.90;;;;;;5040048;28;20456;-67
2021/01/19 10:13:06;;;;;;;5.87;3.07;;;3.60;96.70;;;;;;5033722;28;20025;-67
2021/01/19 10:15:32;;;;;;;7.97;3.40;;;3.60;96.80;;;;;;5040039;28;20087;-67
2021/01/19 10:17:58;;;;;;;7.47;3.55;;;3.60;96.60;;;;;;5042746;28;20040;-66
2021/01/19 10:20:32;;;;;;;5.40;3.17;;;3.70;96.60;;;;;;5038907;28;20028;-67
2021/01/19 10:22:58;;;;;;;4.18;2.80;;;3.70;96.80;;;;;;5042482;28;20412;-66
2021/01/19 10:25:27;;;;;;;6.53;3.67;;;3.70;96.70;;;;;;5033418;28;20036;-66
2021/01/19 10:27:58;;;;;;;7.78;3.60;;;3.70;96.70;;;;;;5046801;28;20509;-67
2021/01/19 10:30:32;;;;;;;7.43;3.53;;;3.70;96.90;;;;;;5041214;28;20055;-66
2021/01/19 10:32:58;;;;;;;5.97;3.10;;;3.70;97.00;;;;;;5044242;28;20026;-67
2021/01/19 10:35:35;;;;;;;5.95;3.47;;;3.70;97.00;;;;;;5042248;28;20029;-67
2021/01/19 10:38:02;;;;;;;8.05;3.67;;;3.70;97.00;;;;;;5040266;28;20043;-67
2021/01/19 10:40:29;;;;;;;8.45;3.55;;;3.80;97.00;;;;;;5042188;28;20040;-66
2021/01/19 10:42:56;;;;;;;8.25;3.33;;;3.80;96.90;;;;;;5039867;28;20043;-67
2021/01/19 10:45:30;;;;;;;4.95;3.25;;;3.80;97.00;;;;;;5035237;28;20021;-67
2021/01/19 10:47:58;;;;;;;8.75;3.72;;;3.80;97.00;;;;;;5041821;28;20053;-67
2021/01/19 10:50:32;;;;;;;6.82;3.92;;;3.90;97.00;;;;;;5044709;28;20037;-66
2021/01/19 10:53:00;;;;;;;6.68;3.35;;;3.90;97.00;;;;;;5040419;28;20017;-66
2021/01/19 10:55:26;;;;;;;8.13;3.92;;;3.90;97.00;;;;;;5035698;28;20504;-67
2021/01/19 10:57:53;;;;;;;4.82;3.33;;;3.90;97.00;;;;;;5036857;28;20436;-67
2021/01/19 11:00:19;;;;;;;5.78;3.17;;;3.90;96.90;;;;;;5038110;28;20405;-67
2021/01/19 11:02:44;;;;;;;6.80;3.15;;;3.90;96.90;;;;;;5048400;28;20031;-66
2021/01/19 11:05:10;;;;;;;7.32;3.60;;;3.90;97.00;;;;;;5039864;28;20424;-67
2021/01/19 11:07:36;;;;;;;6.78;3.65;;;4.00;97.00;;;;;;5041842;28;20064;-67
2021/01/19 11:10:01;;;;;;;6.00;4.00;;;4.00;97.00;;;;;;5037591;28;20033;-67
2021/01/19 11:12:27;;;;;;;6.53;3.67;;;4.00;97.00;;;;;;5048678;28;20116;-67
2021/01/19 11:14:53;;;;;;;8.00;3.80;;;4.00;96.90;;;;;;5045638;28;20382;-67
2021/01/19 11:17:18;;;;;;;6.85;3.78;;;4.00;96.90;;;;;;5037019;28;20036;-67
2021/01/19 11:19:44;;;;;;;7.65;3.90;;;4.00;97.00;;;;;;5048799;28;20040;-67
2021/01/19 11:22:09;;;;;;;6.03;3.78;;;4.00;97.10;;;;;;5036587;28;20076;-67
2021/01/19 11:24:35;;;;;;;6.05;3.63;;;4.10;97.00;;;;;;5035666;28;20033;-67
2021/01/19 11:27:00;;;;;;;6.07;3.75;;;4.10;97.10;;;;;;5038473;28;20100;-67
2021/01/19 11:29:26;;;;;;;6.18;3.90;;;4.00;97.00;;;;;;5044988;28;20037;-67
2021/01/19 11:31:52;;;;;;;8.40;4.18;;;4.00;97.10;;;;;;5043052;28;20524;-67
2021/01/19 11:34:18;;;;;;;7.13;4.13;;;4.10;97.20;;;;;;5045547;28;20040;-67
2021/01/19 11:36:44;;;;;;;8.30;4.00;;;4.10;97.30;;;;;;5032455;28;20030;-67
2021/01/19 11:39:10;;;;;;;5.60;3.92;;;4.10;97.20;;;;;;5027430;28;20417;-67
2021/01/19 11:41:36;;;;;;;6.30;3.90;;;4.10;97.30;;;;;;5036328;28;20025;-66
2021/01/19 11:44:03;;;;;;;7.40;4.18;;;4.10;97.30;;;;;;5045231;28;20087;-67
2021/01/19 11:46:30;;;;;;;8.88;4.30;;;4.10;97.30;;;;;;5031106;28;20398;-67
2021/01/19 11:48:58;;;;;;;6.10;4.40;;;4.10;97.30;;;;;;5019908;28;20037;-68
2021/01/19 11:51:27;;;;;;;6.50;4.18;;;4.10;97.30;;;;;;5038715;28;20070;-67
2021/01/19 11:53:54;;;;;;;5.97;3.78;;;4.10;97.30;;;;;;5022452;28;20033;-66
2021/01/19 11:56:20;;;;;;;6.38;4.03;;;4.20;97.30;;;;;;5032464;28;20044;-68
2021/01/19 11:58:46;;;;;;;7.95;3.88;;;4.10;97.40;;;;;;5038815;28;20397;-67
2021/01/19 12:01:19;;;;;;;6.35;4.43;;;4.10;97.40;;;;;;5043404;28;20033;-67
2021/01/19 12:03:45;;;;;;;5.88;3.75;;;4.20;97.40;;;;;;5031418;28;20028;-67
2021/01/19 12:06:11;;;;;;;5.63;4.10;;;4.20;97.50;;;;;;5040370;28;20104;-67
2021/01/19 12:08:37;;;;;;;6.45;4.47;;;4.20;97.40;;;;;;5048748;28;20033;-67
2021/01/19 12:11:05;;;;;;;6.20;3.92;;;4.20;97.50;;;;;;5037220;28;20036;-67
2021/01/19 12:13:31;;;;;;;5.82;4.03;;;4.20;97.50;;;;;;5043969;28;20035;-67
2021/01/19 12:15:57;;;;;;;6.25;3.85;;;4.20;97.40;;;;;;5039199;28;20033;-68
2021/01/19 12:18:22;;;;;;;7.28;4.03;;;4.20;97.30;;;;;;5049402;28;20436;-67
2021/01/19 12:20:48;;;;;;;5.90;4.18;;;4.20;97.30;;;;;;5046926;28;20825;-67
2021/01/19 12:23:13;;;;;;;8.90;4.45;;;4.20;97.20;;;;;;5042162;28;20029;-67
2021/01/19 12:25:39;;;;;;;5.70;4.22;;;4.30;97.30;;;;;;5031376;28;20082;-67
2021/01/19 12:28:05;;;;;;;7.10;4.78;;;4.30;97.40;;;;;;5047264;28;20179;-67
2021/01/19 12:30:30;;;;;;;6.25;4.07;;;4.30;97.40;;;;;;5039975;28;20100;-67
2021/01/19 12:32:56;;;;;;;6.47;4.88;;;4.30;97.50;;;;;;5049628;28;20028;-68
2021/01/19 12:35:22;;;;;;;8.95;5.10;;;4.30;97.50;;;;;;5047453;28;20500;-67
2021/01/19 12:37:48;;;;;;;6.68;4.90;;;4.30;97.60;;;;;;5042754;28;20731;-67
2021/01/19 12:40:14;;;;;;;6.95;4.85;;;4.30;97.60;;;;;;5040246;28;20052;-67
2021/01/19 12:42:42;;;;;;;7.38;4.93;;;4.30;97.60;;;;;;5042025;28;20535;-67
2021/01/19 12:45:08;;;;;;;7.53;5.57;;;4.40;97.60;;;;;;5046975;28;20071;-67
2021/01/19 12:47:33;;;;;;;9.05;5.47;;;4.40;97.70;;;;;;5084780;22;20746;-65
2021/01/19 12:49:59;;;;;;;7.65;5.07;;;4.40;97.70;;;;;;5064970;28;20031;-67
2021/01/19 12:52:24;;;;;;;8.57;5.30;;;4.40;97.70;;;;;;5060832;28;20129;-67
2021/01/19 12:54:50;;;;;;;7.97;5.53;;;4.40;97.80;;;;;;5065721;28;20009;-66